sensor_id;sensor_type;location;lat;lon;timestamp;P1;durP1;ratioP1;P2;durP2;ratioP2
67597;SDS011;62026;39.230;9.122;2022-09-30T00:00:29;15.95;;;2.45;;
67597;SDS011;62026;39.230;9.122;2022-09-30T00:02:56;26.13;;;2.97;;
67597;SDS011;62026;39.230;9.122;2022-09-30T00:05:22;22.83;;;2.67;;
67597;SDS011;62026;39.230;9.122;2022-09-30T00:07:48;12.48;;;2.35;;
67597;SDS011;62026;39.230;9.122;2022-09-30T00:10:14;9.85;;;1.73;;
67597;SDS011;62026;39.230;9.122;2022-09-30T00:12:41;11.43;;;1.92;;
67597;SDS011;62026;39.230;9.122;2022-09-30T00:15:07;20.30;;;3.47;;
67597;SDS011;62026;39.230;9.122;2022-09-30T00:17:34;6.53;;;1.60;;
67597;SDS011;62026;39.230;9.122;2022-09-30T00:20:00;9.63;;;1.60;;
67597;SDS011;62026;39.230;9.122;2022-09-30T00:22:27;10.27;;;1.50;;
67597;SDS011;62026;39.230;9.122;2022-09-30T00:24:53;9.05;;;1.65;;
67597;SDS011;62026;39.230;9.122;2022-09-30T00:27:19;6.75;;;1.48;;
67597;SDS011;62026;39.230;9.122;2022-09-30T00:29:46;7.75;;;1.70;;
67597;SDS011;62026;39.230;9.122;2022-09-30T00:32:12;9.20;;;1.90;;
67597;SDS011;62026;39.230;9.122;2022-09-30T00:34:38;5.90;;;1.77;;
67597;SDS011;62026;39.230;9.122;2022-09-30T00:37:04;9.45;;;1.88;;
67597;SDS011;62026;39.230;9.122;2022-09-30T00:39:30;6.93;;;1.77;;
67597;SDS011;62026;39.230;9.122;2022-09-30T00:41:57;8.65;;;1.70;;
67597;SDS011;62026;39.230;9.122;2022-09-30T00:47:53;7.95;;;1.60;;
67597;SDS011;62026;39.230;9.122;2022-09-30T00:50:09;6.30;;;1.60;;
67597;SDS011;62026;39.230;9.122;2022-09-30T00:52:57;8.20;;;1.50;;
67597;SDS011;62026;39.230;9.122;2022-09-30T00:55:40;4.65;;;1.33;;
67597;SDS011;62026;39.230;9.122;2022-09-30T00:58:22;7.13;;;1.42;;
67597;SDS011;62026;39.230;9.122;2022-09-30T01:00:56;7.00;;;1.48;;
67597;SDS011;62026;39.230;9.122;2022-09-30T01:03:28;5.80;;;1.58;;
67597;SDS011;62026;39.230;9.122;2022-09-30T01:05:57;7.25;;;1.83;;
67597;SDS011;62026;39.230;9.122;2022-09-30T01:08:24;5.25;;;1.30;;
67597;SDS011;62026;39.230;9.122;2022-09-30T01:10:52;11.23;;;1.73;;
67597;SDS011;62026;39.230;9.122;2022-09-30T01:13:18;7.00;;;1.55;;
67597;SDS011;62026;39.230;9.122;2022-09-30T01:15:57;4.72;;;1.45;;
67597;SDS011;62026;39.230;9.122;2022-09-30T01:34:22;4.82;;;1.30;;
67597;SDS011;62026;39.230;9.122;2022-09-30T01:37:43;10.68;;;1.70;;
67597;SDS011;62026;39.230;9.122;2022-09-30T01:40:42;5.95;;;1.50;;
67597;SDS011;62026;39.230;9.122;2022-09-30T01:46:21;5.82;;;1.20;;
67597;SDS011;62026;39.230;9.122;2022-09-30T01:54:33;4.00;;;1.00;;
67597;SDS011;62026;39.230;9.122;2022-09-30T01:57:30;4.82;;;0.93;;
67597;SDS011;62026;39.230;9.122;2022-09-30T02:00:40;5.90;;;0.90;;
67597;SDS011;62026;39.230;9.122;2022-09-30T02:03:14;2.97;;;0.70;;
67597;SDS011;62026;39.230;9.122;2022-09-30T02:08:22;3.50;;;0.73;;
67597;SDS011;62026;39.230;9.122;2022-09-30T02:11:00;3.78;;;0.70;;
67597;SDS011;62026;39.230;9.122;2022-09-30T02:13:43;2.97;;;0.70;;
67597;SDS011;62026;39.230;9.122;2022-09-30T02:16:39;5.38;;;1.10;;
67597;SDS011;62026;39.230;9.122;2022-09-30T02:19:29;3.15;;;0.90;;
67597;SDS011;62026;39.230;9.122;2022-09-30T02:24:50;3.10;;;0.90;;
67597;SDS011;62026;39.230;9.122;2022-09-30T02:27:28;3.47;;;0.77;;
67597;SDS011;62026;39.230;9.122;2022-09-30T02:30:06;5.43;;;0.90;;
67597;SDS011;62026;39.230;9.122;2022-09-30T02:32:43;6.28;;;0.82;;
67597;SDS011;62026;39.230;9.122;2022-09-30T02:35:42;4.20;;;0.90;;
67597;SDS011;62026;39.230;9.122;2022-09-30T02:38:29;2.45;;;0.90;;
67597;SDS011;62026;39.230;9.122;2022-09-30T02:41:23;4.55;;;1.00;;
67597;SDS011;62026;39.230;9.122;2022-09-30T02:43:51;3.83;;;1.05;;
67597;SDS011;62026;39.230;9.122;2022-09-30T02:49:21;8.20;;;1.10;;
67597;SDS011;62026;39.230;9.122;2022-09-30T02:58:28;8.63;;;0.88;;
67597;SDS011;62026;39.230;9.122;2022-09-30T03:00:55;4.53;;;1.00;;
67597;SDS011;62026;39.230;9.122;2022-09-30T03:03:32;6.32;;;1.05;;
67597;SDS011;62026;39.230;9.122;2022-09-30T03:06:05;4.75;;;0.90;;
67597;SDS011;62026;39.230;9.122;2022-09-30T03:08:33;4.10;;;1.13;;
67597;SDS011;62026;39.230;9.122;2022-09-30T03:10:59;6.53;;;1.23;;
67597;SDS011;62026;39.230;9.122;2022-09-30T03:19:35;5.05;;;0.80;;
67597;SDS011;62026;39.230;9.122;2022-09-30T03:31:28;4.05;;;1.20;;
67597;SDS011;62026;39.230;9.122;2022-09-30T03:42:52;6.13;;;1.10;;
67597;SDS011;62026;39.230;9.122;2022-09-30T03:48:11;6.47;;;1.40;;
67597;SDS011;62026;39.230;9.122;2022-09-30T03:50:40;7.28;;;1.40;;
67597;SDS011;62026;39.230;9.122;2022-09-30T03:53:08;4.38;;;0.82;;
67597;SDS011;62026;39.230;9.122;2022-09-30T03:55:47;4.28;;;1.20;;
67597;SDS011;62026;39.230;9.122;2022-09-30T03:58:16;8.30;;;1.20;;
67597;SDS011;62026;39.230;9.122;2022-09-30T04:00:46;6.60;;;1.30;;
67597;SDS011;62026;39.230;9.122;2022-09-30T04:03:15;7.18;;;1.05;;
67597;SDS011;62026;39.230;9.122;2022-09-30T04:05:44;5.05;;;1.00;;
67597;SDS011;62026;39.230;9.122;2022-09-30T04:08:11;11.30;;;1.60;;
67597;SDS011;62026;39.230;9.122;2022-09-30T04:10:40;9.65;;;1.70;;
67597;SDS011;62026;39.230;9.122;2022-09-30T04:13:11;10.35;;;1.58;;
67597;SDS011;62026;39.230;9.122;2022-09-30T04:15:37;10.13;;;1.67;;
67597;SDS011;62026;39.230;9.122;2022-09-30T04:18:04;14.05;;;1.77;;
67597;SDS011;62026;39.230;9.122;2022-09-30T04:20:31;22.10;;;2.00;;
67597;SDS011;62026;39.230;9.122;2022-09-30T04:23:01;12.63;;;1.90;;
67597;SDS011;62026;39.230;9.122;2022-09-30T04:25:28;11.48;;;1.45;;
67597;SDS011;62026;39.230;9.122;2022-09-30T04:27:54;11.65;;;1.80;;
67597;SDS011;62026;39.230;9.122;2022-09-30T04:30:21;10.60;;;1.73;;
67597;SDS011;62026;39.230;9.122;2022-09-30T04:32:47;13.30;;;1.58;;
67597;SDS011;62026;39.230;9.122;2022-09-30T04:35:14;13.35;;;1.73;;
67597;SDS011;62026;39.230;9.122;2022-09-30T04:37:41;6.85;;;1.30;;
67597;SDS011;62026;39.230;9.122;2022-09-30T04:40:09;13.18;;;1.85;;
67597;SDS011;62026;39.230;9.122;2022-09-30T04:42:37;11.38;;;1.60;;
67597;SDS011;62026;39.230;9.122;2022-09-30T04:45:10;7.22;;;1.50;;
67597;SDS011;62026;39.230;9.122;2022-09-30T04:47:42;12.88;;;2.00;;
67597;SDS011;62026;39.230;9.122;2022-09-30T04:50:09;14.75;;;2.22;;
67597;SDS011;62026;39.230;9.122;2022-09-30T04:52:35;14.60;;;1.92;;
67597;SDS011;62026;39.230;9.122;2022-09-30T04:55:02;6.55;;;1.55;;
67597;SDS011;62026;39.230;9.122;2022-09-30T04:57:29;6.63;;;1.40;;
67597;SDS011;62026;39.230;9.122;2022-09-30T04:59:55;5.93;;;1.38;;
67597;SDS011;62026;39.230;9.122;2022-09-30T05:02:21;8.65;;;1.33;;
67597;SDS011;62026;39.230;9.122;2022-09-30T05:04:47;9.80;;;1.25;;
67597;SDS011;62026;39.230;9.122;2022-09-30T05:07:14;5.32;;;1.20;;
67597;SDS011;62026;39.230;9.122;2022-09-30T05:09:40;7.65;;;1.40;;
67597;SDS011;62026;39.230;9.122;2022-09-30T05:12:06;7.97;;;1.45;;
67597;SDS011;62026;39.230;9.122;2022-09-30T05:14:32;7.85;;;1.17;;
67597;SDS011;62026;39.230;9.122;2022-09-30T05:16:58;9.82;;;1.48;;
67597;SDS011;62026;39.230;9.122;2022-09-30T05:19:25;9.07;;;1.55;;
67597;SDS011;62026;39.230;9.122;2022-09-30T05:21:51;5.85;;;1.40;;
67597;SDS011;62026;39.230;9.122;2022-09-30T05:24:17;7.93;;;1.40;;
67597;SDS011;62026;39.230;9.122;2022-09-30T05:26:43;6.18;;;1.48;;
67597;SDS011;62026;39.230;9.122;2022-09-30T05:29:09;7.15;;;1.48;;
67597;SDS011;62026;39.230;9.122;2022-09-30T05:31:35;8.68;;;1.60;;
67597;SDS011;62026;39.230;9.122;2022-09-30T05:34:02;8.23;;;1.52;;
67597;SDS011;62026;39.230;9.122;2022-09-30T05:36:28;11.02;;;1.60;;
67597;SDS011;62026;39.230;9.122;2022-09-30T05:38:54;8.80;;;1.40;;
67597;SDS011;62026;39.230;9.122;2022-09-30T05:41:20;6.97;;;1.25;;
67597;SDS011;62026;39.230;9.122;2022-09-30T05:43:48;5.50;;;1.50;;
67597;SDS011;62026;39.230;9.122;2022-09-30T05:46:15;5.45;;;1.35;;
67597;SDS011;62026;39.230;9.122;2022-09-30T05:48:44;5.53;;;1.00;;
67597;SDS011;62026;39.230;9.122;2022-09-30T05:51:11;8.15;;;1.67;;
67597;SDS011;62026;39.230;9.122;2022-09-30T05:53:38;5.07;;;1.48;;
67597;SDS011;62026;39.230;9.122;2022-09-30T05:56:05;5.40;;;1.50;;
67597;SDS011;62026;39.230;9.122;2022-09-30T05:58:33;7.00;;;1.50;;
67597;SDS011;62026;39.230;9.122;2022-09-30T06:01:04;6.35;;;1.45;;
67597;SDS011;62026;39.230;9.122;2022-09-30T06:03:38;10.18;;;1.75;;
67597;SDS011;62026;39.230;9.122;2022-09-30T06:06:05;6.85;;;1.75;;
67597;SDS011;62026;39.230;9.122;2022-09-30T06:08:32;4.30;;;1.52;;
67597;SDS011;62026;39.230;9.122;2022-09-30T06:10:59;8.20;;;1.90;;
67597;SDS011;62026;39.230;9.122;2022-09-30T06:13:26;5.82;;;1.80;;
67597;SDS011;62026;39.230;9.122;2022-09-30T06:15:56;11.43;;;2.33;;
67597;SDS011;62026;39.230;9.122;2022-09-30T06:18:25;6.93;;;1.90;;
67597;SDS011;62026;39.230;9.122;2022-09-30T06:21:00;9.90;;;1.80;;
67597;SDS011;62026;39.230;9.122;2022-09-30T06:23:29;5.72;;;1.63;;
67597;SDS011;62026;39.230;9.122;2022-09-30T06:25:59;5.50;;;1.85;;
67597;SDS011;62026;39.230;9.122;2022-09-30T06:28:28;8.55;;;1.75;;
67597;SDS011;62026;39.230;9.122;2022-09-30T06:30:54;9.13;;;2.13;;
67597;SDS011;62026;39.230;9.122;2022-09-30T06:33:20;4.28;;;1.58;;
67597;SDS011;62026;39.230;9.122;2022-09-30T06:35:47;5.70;;;1.85;;
67597;SDS011;62026;39.230;9.122;2022-09-30T06:38:14;6.13;;;2.00;;
67597;SDS011;62026;39.230;9.122;2022-09-30T06:40:44;8.00;;;1.77;;
67597;SDS011;62026;39.230;9.122;2022-09-30T06:43:17;6.15;;;1.50;;
67597;SDS011;62026;39.230;9.122;2022-09-30T06:45:45;9.30;;;1.60;;
67597;SDS011;62026;39.230;9.122;2022-09-30T06:48:15;10.13;;;1.75;;
67597;SDS011;62026;39.230;9.122;2022-09-30T06:50:42;7.07;;;1.60;;
67597;SDS011;62026;39.230;9.122;2022-09-30T06:53:10;8.07;;;1.67;;
67597;SDS011;62026;39.230;9.122;2022-09-30T06:55:38;9.90;;;1.55;;
67597;SDS011;62026;39.230;9.122;2022-09-30T06:58:05;6.00;;;2.13;;
67597;SDS011;62026;39.230;9.122;2022-09-30T07:00:39;6.78;;;1.85;;
67597;SDS011;62026;39.230;9.122;2022-09-30T07:03:05;7.20;;;1.48;;
67597;SDS011;62026;39.230;9.122;2022-09-30T07:05:42;7.03;;;1.63;;
67597;SDS011;62026;39.230;9.122;2022-09-30T07:08:08;8.45;;;1.52;;
67597;SDS011;62026;39.230;9.122;2022-09-30T07:10:34;6.68;;;1.70;;
67597;SDS011;62026;39.230;9.122;2022-09-30T07:13:00;8.27;;;1.63;;
67597;SDS011;62026;39.230;9.122;2022-09-30T07:15:26;7.22;;;1.60;;
67597;SDS011;62026;39.230;9.122;2022-09-30T07:17:53;13.68;;;2.08;;
67597;SDS011;62026;39.230;9.122;2022-09-30T07:20:23;8.65;;;2.03;;
67597;SDS011;62026;39.230;9.122;2022-09-30T07:22:49;5.25;;;1.55;;
67597;SDS011;62026;39.230;9.122;2022-09-30T07:25:16;6.20;;;1.48;;
67597;SDS011;62026;39.230;9.122;2022-09-30T07:27:42;10.90;;;1.90;;
67597;SDS011;62026;39.230;9.122;2022-09-30T07:30:09;7.93;;;1.70;;
67597;SDS011;62026;39.230;9.122;2022-09-30T07:32:35;6.15;;;1.52;;
67597;SDS011;62026;39.230;9.122;2022-09-30T07:35:02;7.18;;;1.70;;
67597;SDS011;62026;39.230;9.122;2022-09-30T07:37:29;9.70;;;1.98;;
67597;SDS011;62026;39.230;9.122;2022-09-30T07:40:01;8.27;;;1.42;;
67597;SDS011;62026;39.230;9.122;2022-09-30T07:42:31;11.18;;;1.63;;
67597;SDS011;62026;39.230;9.122;2022-09-30T07:45:02;12.40;;;1.85;;
67597;SDS011;62026;39.230;9.122;2022-09-30T07:47:28;8.45;;;1.75;;
67597;SDS011;62026;39.230;9.122;2022-09-30T07:49:54;9.63;;;1.50;;
67597;SDS011;62026;39.230;9.122;2022-09-30T07:52:21;9.00;;;1.77;;
67597;SDS011;62026;39.230;9.122;2022-09-30T07:54:47;7.35;;;1.63;;
67597;SDS011;62026;39.230;9.122;2022-09-30T07:57:13;5.95;;;2.05;;
67597;SDS011;62026;39.230;9.122;2022-09-30T07:59:39;11.30;;;1.70;;
67597;SDS011;62026;39.230;9.122;2022-09-30T08:02:07;8.45;;;1.85;;
67597;SDS011;62026;39.230;9.122;2022-09-30T08:04:40;10.73;;;1.67;;
67597;SDS011;62026;39.230;9.122;2022-09-30T08:07:07;7.47;;;1.60;;
67597;SDS011;62026;39.230;9.122;2022-09-30T08:09:33;9.65;;;1.83;;
67597;SDS011;62026;39.230;9.122;2022-09-30T08:12:00;8.00;;;1.63;;
67597;SDS011;62026;39.230;9.122;2022-09-30T08:14:29;10.73;;;1.95;;
67597;SDS011;62026;39.230;9.122;2022-09-30T08:16:55;8.55;;;1.90;;
67597;SDS011;62026;39.230;9.122;2022-09-30T08:19:25;9.48;;;1.98;;
67597;SDS011;62026;39.230;9.122;2022-09-30T08:21:53;11.18;;;1.92;;
67597;SDS011;62026;39.230;9.122;2022-09-30T08:24:19;10.45;;;1.60;;
67597;SDS011;62026;39.230;9.122;2022-09-30T08:26:47;16.25;;;1.88;;
67597;SDS011;62026;39.230;9.122;2022-09-30T08:29:14;12.18;;;2.35;;
67597;SDS011;62026;39.230;9.122;2022-09-30T08:31:40;9.55;;;1.70;;
67597;SDS011;62026;39.230;9.122;2022-09-30T08:34:06;8.15;;;1.40;;
67597;SDS011;62026;39.230;9.122;2022-09-30T08:36:33;9.15;;;1.83;;
67597;SDS011;62026;39.230;9.122;2022-09-30T08:38:59;10.30;;;1.58;;
67597;SDS011;62026;39.230;9.122;2022-09-30T08:52:04;10.43;;;1.98;;
67597;SDS011;62026;39.230;9.122;2022-09-30T08:54:41;10.13;;;1.67;;
67597;SDS011;62026;39.230;9.122;2022-09-30T08:57:15;14.07;;;1.85;;
67597;SDS011;62026;39.230;9.122;2022-09-30T09:00:03;12.65;;;2.38;;
67597;SDS011;62026;39.230;9.122;2022-09-30T09:02:39;13.02;;;1.90;;
67597;SDS011;62026;39.230;9.122;2022-09-30T09:08:22;10.40;;;1.98;;
67597;SDS011;62026;39.230;9.122;2022-09-30T09:11:07;9.18;;;1.60;;
67597;SDS011;62026;39.230;9.122;2022-09-30T09:14:24;13.68;;;2.50;;
67597;SDS011;62026;39.230;9.122;2022-09-30T09:20:14;15.85;;;1.85;;
67597;SDS011;62026;39.230;9.122;2022-09-30T09:22:46;10.43;;;1.70;;
67597;SDS011;62026;39.230;9.122;2022-09-30T09:25:22;17.30;;;2.10;;
67597;SDS011;62026;39.230;9.122;2022-09-30T09:28:08;10.98;;;2.13;;
67597;SDS011;62026;39.230;9.122;2022-09-30T09:31:04;19.40;;;2.80;;
67597;SDS011;62026;39.230;9.122;2022-09-30T09:33:41;14.55;;;2.08;;
67597;SDS011;62026;39.230;9.122;2022-09-30T09:45:21;11.48;;;1.73;;
67597;SDS011;62026;39.230;9.122;2022-09-30T09:48:21;15.80;;;2.00;;
67597;SDS011;62026;39.230;9.122;2022-09-30T09:53:51;8.30;;;1.48;;
67597;SDS011;62026;39.230;9.122;2022-09-30T09:56:25;9.73;;;1.92;;
67597;SDS011;62026;39.230;9.122;2022-09-30T09:59:11;11.27;;;2.00;;
67597;SDS011;62026;39.230;9.122;2022-09-30T10:01:42;6.68;;;1.55;;
67597;SDS011;62026;39.230;9.122;2022-09-30T10:04:22;10.05;;;2.00;;
67597;SDS011;62026;39.230;9.122;2022-09-30T10:06:55;14.70;;;2.08;;
67597;SDS011;62026;39.230;9.122;2022-09-30T10:09:38;14.60;;;2.55;;
67597;SDS011;62026;39.230;9.122;2022-09-30T10:19:54;17.45;;;2.20;;
67597;SDS011;62026;39.230;9.122;2022-09-30T10:22:41;13.48;;;1.95;;
67597;SDS011;62026;39.230;9.122;2022-09-30T10:25:13;12.48;;;2.20;;
67597;SDS011;62026;39.230;9.122;2022-09-30T10:27:47;18.15;;;2.65;;
67597;SDS011;62026;39.230;9.122;2022-09-30T10:30:35;18.88;;;2.17;;
67597;SDS011;62026;39.230;9.122;2022-09-30T10:33:03;15.65;;;2.30;;
67597;SDS011;62026;39.230;9.122;2022-09-30T10:36:12;17.85;;;2.10;;
67597;SDS011;62026;39.230;9.122;2022-09-30T10:41:11;15.20;;;2.78;;
67597;SDS011;62026;39.230;9.122;2022-09-30T10:46:09;15.10;;;2.47;;
67597;SDS011;62026;39.230;9.122;2022-09-30T10:48:36;23.38;;;2.63;;
67597;SDS011;62026;39.230;9.122;2022-09-30T10:51:05;22.98;;;2.92;;
67597;SDS011;62026;39.230;9.122;2022-09-30T10:53:51;16.52;;;2.60;;
67597;SDS011;62026;39.230;9.122;2022-09-30T10:59:10;18.20;;;3.20;;
67597;SDS011;62026;39.230;9.122;2022-09-30T11:01:56;19.77;;;2.47;;
67597;SDS011;62026;39.230;9.122;2022-09-30T11:04:43;18.48;;;2.35;;
67597;SDS011;62026;39.230;9.122;2022-09-30T11:07:32;16.33;;;2.55;;
67597;SDS011;62026;39.230;9.122;2022-09-30T11:10:30;22.73;;;2.83;;
67597;SDS011;62026;39.230;9.122;2022-09-30T11:18:36;20.58;;;3.20;;
67597;SDS011;62026;39.230;9.122;2022-09-30T11:21:21;22.75;;;2.72;;
67597;SDS011;62026;39.230;9.122;2022-09-30T11:24:02;16.70;;;2.80;;
67597;SDS011;62026;39.230;9.122;2022-09-30T11:36:09;13.68;;;2.47;;
67597;SDS011;62026;39.230;9.122;2022-09-30T11:45:20;21.55;;;2.85;;
67597;SDS011;62026;39.230;9.122;2022-09-30T12:05:48;14.30;;;2.10;;
67597;SDS011;62026;39.230;9.122;2022-09-30T12:08:24;16.05;;;1.98;;
67597;SDS011;62026;39.230;9.122;2022-09-30T12:11:06;16.80;;;2.40;;
67597;SDS011;62026;39.230;9.122;2022-09-30T12:13:58;15.85;;;2.55;;
67597;SDS011;62026;39.230;9.122;2022-09-30T12:16:35;11.30;;;2.00;;
67597;SDS011;62026;39.230;9.122;2022-09-30T12:21:52;15.20;;;2.50;;
67597;SDS011;62026;39.230;9.122;2022-09-30T12:24:39;16.33;;;2.80;;
67597;SDS011;62026;39.230;9.122;2022-09-30T12:27:55;14.63;;;2.40;;
67597;SDS011;62026;39.230;9.122;2022-09-30T12:30:16;12.70;;;2.10;;
67597;SDS011;62026;39.230;9.122;2022-09-30T12:41:48;14.18;;;2.35;;
67597;SDS011;62026;39.230;9.122;2022-09-30T12:47:51;17.08;;;2.42;;
67597;SDS011;62026;39.230;9.122;2022-09-30T12:50:39;16.30;;;2.05;;
67597;SDS011;62026;39.230;9.122;2022-09-30T12:56:02;15.23;;;2.72;;
67597;SDS011;62026;39.230;9.122;2022-09-30T12:58:35;15.18;;;2.85;;
67597;SDS011;62026;39.230;9.122;2022-09-30T13:01:26;16.20;;;2.20;;
67597;SDS011;62026;39.230;9.122;2022-09-30T13:06:24;24.13;;;2.53;;
67597;SDS011;62026;39.230;9.122;2022-09-30T13:19:41;11.73;;;2.08;;
67597;SDS011;62026;39.230;9.122;2022-09-30T13:35:46;11.20;;;1.92;;
67597;SDS011;62026;39.230;9.122;2022-09-30T13:38:18;11.30;;;1.75;;
67597;SDS011;62026;39.230;9.122;2022-09-30T13:41:01;10.68;;;1.85;;
67597;SDS011;62026;39.230;9.122;2022-09-30T13:44:13;11.32;;;1.50;;
67597;SDS011;62026;39.230;9.122;2022-09-30T13:46:50;9.45;;;2.05;;
67597;SDS011;62026;39.230;9.122;2022-09-30T13:52:31;8.63;;;1.73;;
67597;SDS011;62026;39.230;9.122;2022-09-30T13:55:47;8.18;;;1.63;;
67597;SDS011;62026;39.230;9.122;2022-09-30T13:58:10;13.80;;;1.70;;
67597;SDS011;62026;39.230;9.122;2022-09-30T14:01:42;7.88;;;2.45;;
67597;SDS011;62026;39.230;9.122;2022-09-30T14:13:20;8.73;;;1.58;;
67597;SDS011;62026;39.230;9.122;2022-09-30T14:21:55;9.82;;;1.58;;
67597;SDS011;62026;39.230;9.122;2022-09-30T14:24:28;9.32;;;2.00;;
67597;SDS011;62026;39.230;9.122;2022-09-30T14:35:28;12.32;;;2.35;;
67597;SDS011;62026;39.230;9.122;2022-09-30T14:38:15;14.70;;;1.70;;
67597;SDS011;62026;39.230;9.122;2022-09-30T14:40:53;9.52;;;2.17;;
67597;SDS011;62026;39.230;9.122;2022-09-30T14:43:23;11.73;;;2.03;;
67597;SDS011;62026;39.230;9.122;2022-09-30T14:46:01;15.82;;;1.77;;
67597;SDS011;62026;39.230;9.122;2022-09-30T14:48:40;8.53;;;1.70;;
67597;SDS011;62026;39.230;9.122;2022-09-30T14:51:13;10.38;;;1.63;;
67597;SDS011;62026;39.230;9.122;2022-09-30T14:53:55;8.98;;;2.10;;
67597;SDS011;62026;39.230;9.122;2022-09-30T14:56:28;8.55;;;1.50;;
67597;SDS011;62026;39.230;9.122;2022-09-30T14:58:59;7.80;;;1.40;;
67597;SDS011;62026;39.230;9.122;2022-09-30T15:01:49;6.43;;;1.48;;
67597;SDS011;62026;39.230;9.122;2022-09-30T15:04:23;7.78;;;1.45;;
67597;SDS011;62026;39.230;9.122;2022-09-30T15:06:56;7.63;;;1.50;;
67597;SDS011;62026;39.230;9.122;2022-09-30T15:09:34;4.30;;;1.08;;
67597;SDS011;62026;39.230;9.122;2022-09-30T15:12:14;5.93;;;1.15;;
67597;SDS011;62026;39.230;9.122;2022-09-30T15:14:54;5.00;;;1.10;;
67597;SDS011;62026;39.230;9.122;2022-09-30T15:17:24;3.22;;;0.90;;
67597;SDS011;62026;39.230;9.122;2022-09-30T15:19:54;3.88;;;0.95;;
67597;SDS011;62026;39.230;9.122;2022-09-30T15:22:22;4.47;;;0.88;;
67597;SDS011;62026;39.230;9.122;2022-09-30T15:24:52;1.98;;;0.70;;
67597;SDS011;62026;39.230;9.122;2022-09-30T15:30:00;4.35;;;0.80;;
67597;SDS011;62026;39.230;9.122;2022-09-30T15:32:55;2.83;;;0.88;;
67597;SDS011;62026;39.230;9.122;2022-09-30T15:35:30;10.82;;;0.95;;
67597;SDS011;62026;39.230;9.122;2022-09-30T15:38:14;69.55;;;5.68;;
67597;SDS011;62026;39.230;9.122;2022-09-30T15:40:57;42.08;;;3.75;;
67597;SDS011;62026;39.230;9.122;2022-09-30T15:43:48;16.65;;;1.60;;
67597;SDS011;62026;39.230;9.122;2022-09-30T15:46:19;7.47;;;0.82;;
67597;SDS011;62026;39.230;9.122;2022-09-30T15:48:55;4.88;;;0.80;;
67597;SDS011;62026;39.230;9.122;2022-09-30T15:54:25;7.22;;;1.08;;
67597;SDS011;62026;39.230;9.122;2022-09-30T15:57:00;4.88;;;1.02;;
67597;SDS011;62026;39.230;9.122;2022-09-30T15:59:58;3.05;;;1.10;;
67597;SDS011;62026;39.230;9.122;2022-09-30T16:02:29;6.77;;;0.90;;
67597;SDS011;62026;39.230;9.122;2022-09-30T16:04:56;7.32;;;0.95;;
67597;SDS011;62026;39.230;9.122;2022-09-30T16:07:26;2.67;;;1.02;;
67597;SDS011;62026;39.230;9.122;2022-09-30T16:09:56;7.68;;;0.82;;
67597;SDS011;62026;39.230;9.122;2022-09-30T16:12:28;4.47;;;1.40;;
67597;SDS011;62026;39.230;9.122;2022-09-30T16:15:07;3.85;;;1.08;;
67597;SDS011;62026;39.230;9.122;2022-09-30T16:17:38;6.30;;;1.33;;
67597;SDS011;62026;39.230;9.122;2022-09-30T16:25:24;4.07;;;1.13;;
67597;SDS011;62026;39.230;9.122;2022-09-30T16:30:26;7.10;;;1.13;;
67597;SDS011;62026;39.230;9.122;2022-09-30T16:32:57;7.65;;;1.83;;
67597;SDS011;62026;39.230;9.122;2022-09-30T16:35:28;8.60;;;1.67;;
67597;SDS011;62026;39.230;9.122;2022-09-30T16:37:59;4.95;;;1.30;;
67597;SDS011;62026;39.230;9.122;2022-09-30T16:40:31;3.83;;;0.93;;
67597;SDS011;62026;39.230;9.122;2022-09-30T16:43:03;4.05;;;1.05;;
67597;SDS011;62026;39.230;9.122;2022-09-30T16:45:29;4.93;;;0.90;;
67597;SDS011;62026;39.230;9.122;2022-09-30T16:47:57;4.20;;;1.02;;
67597;SDS011;62026;39.230;9.122;2022-09-30T16:50:47;3.42;;;1.05;;
67597;SDS011;62026;39.230;9.122;2022-09-30T16:53:16;5.32;;;0.88;;
67597;SDS011;62026;39.230;9.122;2022-09-30T16:55:42;5.07;;;0.93;;
67597;SDS011;62026;39.230;9.122;2022-09-30T16:58:12;2.92;;;0.75;;
67597;SDS011;62026;39.230;9.122;2022-09-30T17:00:42;5.28;;;1.15;;
67597;SDS011;62026;39.230;9.122;2022-09-30T17:03:13;5.55;;;1.08;;
67597;SDS011;62026;39.230;9.122;2022-09-30T17:05:42;4.72;;;1.00;;
67597;SDS011;62026;39.230;9.122;2022-09-30T17:08:12;2.63;;;0.60;;
67597;SDS011;62026;39.230;9.122;2022-09-30T17:10:42;2.22;;;0.80;;
67597;SDS011;62026;39.230;9.122;2022-09-30T17:13:11;3.35;;;1.17;;
67597;SDS011;62026;39.230;9.122;2022-09-30T17:15:40;4.75;;;1.17;;
67597;SDS011;62026;39.230;9.122;2022-09-30T17:18:11;2.03;;;0.52;;
67597;SDS011;62026;39.230;9.122;2022-09-30T17:20:41;1.58;;;0.52;;
67597;SDS011;62026;39.230;9.122;2022-09-30T17:23:09;3.97;;;0.77;;
67597;SDS011;62026;39.230;9.122;2022-09-30T17:25:40;2.75;;;0.80;;
67597;SDS011;62026;39.230;9.122;2022-09-30T17:28:08;1.80;;;0.70;;
67597;SDS011;62026;39.230;9.122;2022-09-30T17:30:36;2.60;;;0.68;;
67597;SDS011;62026;39.230;9.122;2022-09-30T17:33:03;1.27;;;0.70;;
67597;SDS011;62026;39.230;9.122;2022-09-30T17:35:29;2.30;;;0.88;;
67597;SDS011;62026;39.230;9.122;2022-09-30T17:37:57;3.92;;;1.15;;
67597;SDS011;62026;39.230;9.122;2022-09-30T17:40:24;2.90;;;1.10;;
67597;SDS011;62026;39.230;9.122;2022-09-30T17:43:09;2.53;;;0.80;;
67597;SDS011;62026;39.230;9.122;2022-09-30T17:45:36;2.35;;;0.82;;
67597;SDS011;62026;39.230;9.122;2022-09-30T17:48:07;2.70;;;0.95;;
67597;SDS011;62026;39.230;9.122;2022-09-30T17:50:35;2.75;;;1.30;;
67597;SDS011;62026;39.230;9.122;2022-09-30T17:53:02;2.47;;;1.02;;
67597;SDS011;62026;39.230;9.122;2022-09-30T17:55:30;2.83;;;1.17;;
67597;SDS011;62026;39.230;9.122;2022-09-30T17:57:58;4.30;;;1.45;;
67597;SDS011;62026;39.230;9.122;2022-09-30T18:00:27;4.85;;;1.90;;
67597;SDS011;62026;39.230;9.122;2022-09-30T18:02:54;3.28;;;1.63;;
67597;SDS011;62026;39.230;9.122;2022-09-30T18:05:20;5.15;;;1.52;;
67597;SDS011;62026;39.230;9.122;2022-09-30T18:07:50;5.20;;;1.70;;
67597;SDS011;62026;39.230;9.122;2022-09-30T18:10:16;4.72;;;1.80;;
67597;SDS011;62026;39.230;9.122;2022-09-30T18:12:43;6.18;;;1.60;;
67597;SDS011;62026;39.230;9.122;2022-09-30T18:15:13;4.00;;;1.55;;
67597;SDS011;62026;39.230;9.122;2022-09-30T18:17:41;5.43;;;1.30;;
67597;SDS011;62026;39.230;9.122;2022-09-30T18:20:07;3.47;;;1.48;;
67597;SDS011;62026;39.230;9.122;2022-09-30T18:22:34;8.23;;;1.30;;
67597;SDS011;62026;39.230;9.122;2022-09-30T18:25:00;3.78;;;1.38;;
67597;SDS011;62026;39.230;9.122;2022-09-30T18:27:49;3.15;;;1.20;;
67597;SDS011;62026;39.230;9.122;2022-09-30T18:30:22;2.80;;;1.30;;
67597;SDS011;62026;39.230;9.122;2022-09-30T18:32:49;3.65;;;1.45;;
67597;SDS011;62026;39.230;9.122;2022-09-30T18:35:18;3.55;;;1.10;;
67597;SDS011;62026;39.230;9.122;2022-09-30T18:37:49;2.13;;;1.10;;
67597;SDS011;62026;39.230;9.122;2022-09-30T18:40:18;4.68;;;1.35;;
67597;SDS011;62026;39.230;9.122;2022-09-30T18:42:47;4.22;;;1.45;;
67597;SDS011;62026;39.230;9.122;2022-09-30T18:45:23;5.43;;;1.63;;
67597;SDS011;62026;39.230;9.122;2022-09-30T18:47:52;5.35;;;1.40;;
67597;SDS011;62026;39.230;9.122;2022-09-30T18:50:21;4.90;;;1.30;;
67597;SDS011;62026;39.230;9.122;2022-09-30T18:52:50;2.47;;;1.25;;
67597;SDS011;62026;39.230;9.122;2022-09-30T18:55:17;2.55;;;1.08;;
67597;SDS011;62026;39.230;9.122;2022-09-30T18:57:44;4.25;;;1.20;;
67597;SDS011;62026;39.230;9.122;2022-09-30T19:00:14;2.80;;;1.00;;
67597;SDS011;62026;39.230;9.122;2022-09-30T19:02:42;2.85;;;1.00;;
67597;SDS011;62026;39.230;9.122;2022-09-30T19:05:09;3.38;;;1.25;;
67597;SDS011;62026;39.230;9.122;2022-09-30T19:07:37;3.47;;;1.00;;
67597;SDS011;62026;39.230;9.122;2022-09-30T19:10:04;3.20;;;1.10;;
67597;SDS011;62026;39.230;9.122;2022-09-30T19:12:33;6.07;;;1.30;;
67597;SDS011;62026;39.230;9.122;2022-09-30T19:15:03;5.05;;;1.75;;